sensor_id;sensor_type;location;lat;lon;timestamp;P1;durP1;ratioP1;P2;durP2;ratioP2
30046;SDS011;16878;52.542;13.426;2023-03-14T00:00:36;6.35;;;1.80;;
30046;SDS011;16878;52.542;13.426;2023-03-14T00:03:01;2.30;;;1.67;;
30046;SDS011;16878;52.542;13.426;2023-03-14T00:05:27;6.30;;;1.77;;
30046;SDS011;16878;52.542;13.426;2023-03-14T00:07:53;2.70;;;1.50;;
30046;SDS011;16878;52.542;13.426;2023-03-14T00:10:18;6.15;;;1.60;;
30046;SDS011;16878;52.542;13.426;2023-03-14T00:12:45;3.28;;;1.95;;
30046;SDS011;16878;52.542;13.426;2023-03-14T00:15:11;2.55;;;1.70;;
30046;SDS011;16878;52.542;13.426;2023-03-14T00:17:37;2.00;;;1.45;;
30046;SDS011;16878;52.542;13.426;2023-03-14T00:20:04;3.00;;;1.30;;
30046;SDS011;16878;52.542;13.426;2023-03-14T00:22:35;2.03;;;1.52;;
30046;SDS011;16878;52.542;13.426;2023-03-14T00:25:01;2.38;;;1.63;;
30046;SDS011;16878;52.542;13.426;2023-03-14T00:27:27;4.78;;;2.15;;
30046;SDS011;16878;52.542;13.426;2023-03-14T00:29:53;2.85;;;1.85;;
30046;SDS011;16878;52.542;13.426;2023-03-14T00:32:18;3.97;;;1.50;;
30046;SDS011;16878;52.542;13.426;2023-03-14T00:34:44;4.25;;;1.40;;
30046;SDS011;16878;52.542;13.426;2023-03-14T00:37:10;1.65;;;1.33;;
30046;SDS011;16878;52.542;13.426;2023-03-14T00:39:35;1.80;;;1.50;;
30046;SDS011;16878;52.542;13.426;2023-03-14T00:42:01;1.48;;;1.38;;
30046;SDS011;16878;52.542;13.426;2023-03-14T00:44:27;2.28;;;1.67;;
30046;SDS011;16878;52.542;13.426;2023-03-14T00:46:53;3.58;;;1.95;;
30046;SDS011;16878;52.542;13.426;2023-03-14T00:49:18;1.65;;;1.42;;
30046;SDS011;16878;52.542;13.426;2023-03-14T00:51:44;4.20;;;1.65;;
30046;SDS011;16878;52.542;13.426;2023-03-14T00:54:10;2.15;;;1.70;;
30046;SDS011;16878;52.542;13.426;2023-03-14T00:56:35;2.75;;;1.60;;
30046;SDS011;16878;52.542;13.426;2023-03-14T00:59:01;5.18;;;1.80;;
30046;SDS011;16878;52.542;13.426;2023-03-14T01:01:27;2.83;;;1.83;;
30046;SDS011;16878;52.542;13.426;2023-03-14T01:03:53;7.82;;;2.22;;
30046;SDS011;16878;52.542;13.426;2023-03-14T01:06:21;2.40;;;1.95;;
30046;SDS011;16878;52.542;13.426;2023-03-14T01:11:16;2.72;;;1.50;;
30046;SDS011;16878;52.542;13.426;2023-03-14T01:13:47;4.20;;;1.45;;
30046;SDS011;16878;52.542;13.426;2023-03-14T01:16:13;4.20;;;2.10;;
30046;SDS011;16878;52.542;13.426;2023-03-14T01:18:40;4.30;;;2.00;;
30046;SDS011;16878;52.542;13.426;2023-03-14T01:21:41;4.15;;;1.90;;
30046;SDS011;16878;52.542;13.426;2023-03-14T01:24:01;3.88;;;1.80;;
30046;SDS011;16878;52.542;13.426;2023-03-14T01:26:29;2.70;;;1.45;;
30046;SDS011;16878;52.542;13.426;2023-03-14T01:28:56;5.45;;;1.65;;
30046;SDS011;16878;52.542;13.426;2023-03-14T01:31:22;2.25;;;1.45;;
30046;SDS011;16878;52.542;13.426;2023-03-14T01:33:49;2.20;;;1.50;;
30046;SDS011;16878;52.542;13.426;2023-03-14T01:36:15;4.57;;;1.90;;
30046;SDS011;16878;52.542;13.426;2023-03-14T01:38:42;2.22;;;1.38;;
30046;SDS011;16878;52.542;13.426;2023-03-14T01:41:11;3.58;;;1.95;;
30046;SDS011;16878;52.542;13.426;2023-03-14T01:43:39;2.42;;;1.30;;
30046;SDS011;16878;52.542;13.426;2023-03-14T01:54:16;4.80;;;1.70;;
30046;SDS011;16878;52.542;13.426;2023-03-14T01:56:44;3.38;;;1.27;;
30046;SDS011;16878;52.542;13.426;2023-03-14T01:59:20;2.40;;;1.63;;
30046;SDS011;16878;52.542;13.426;2023-03-14T02:01:46;2.90;;;1.77;;
30046;SDS011;16878;52.542;13.426;2023-03-14T02:04:14;2.65;;;1.48;;
30046;SDS011;16878;52.542;13.426;2023-03-14T02:06:45;2.58;;;1.30;;
30046;SDS011;16878;52.542;13.426;2023-03-14T02:09:15;2.55;;;1.60;;
30046;SDS011;16878;52.542;13.426;2023-03-14T02:11:41;2.28;;;1.38;;
30046;SDS011;16878;52.542;13.426;2023-03-14T02:14:08;3.28;;;1.38;;
30046;SDS011;16878;52.542;13.426;2023-03-14T02:16:39;2.38;;;1.60;;
30046;SDS011;16878;52.542;13.426;2023-03-14T02:19:04;2.17;;;1.73;;
30046;SDS011;16878;52.542;13.426;2023-03-14T02:21:42;2.00;;;1.15;;
30046;SDS011;16878;52.542;13.426;2023-03-14T02:24:21;4.10;;;1.30;;
30046;SDS011;16878;52.542;13.426;2023-03-14T02:27:16;3.63;;;1.20;;
30046;SDS011;16878;52.542;13.426;2023-03-14T02:29:45;1.50;;;1.40;;
30046;SDS011;16878;52.542;13.426;2023-03-14T02:32:17;2.95;;;1.40;;
30046;SDS011;16878;52.542;13.426;2023-03-14T02:34:46;2.23;;;1.57;;
30046;SDS011;16878;52.542;13.426;2023-03-14T02:37:14;7.03;;;1.55;;
30046;SDS011;16878;52.542;13.426;2023-03-14T02:39:44;2.00;;;1.13;;
30046;SDS011;16878;52.542;13.426;2023-03-14T02:42:11;1.38;;;1.27;;
30046;SDS011;16878;52.542;13.426;2023-03-14T02:44:48;1.88;;;1.17;;
30046;SDS011;16878;52.542;13.426;2023-03-14T02:47:15;3.60;;;1.55;;
30046;SDS011;16878;52.542;13.426;2023-03-14T02:49:41;3.35;;;1.20;;
30046;SDS011;16878;52.542;13.426;2023-03-14T02:52:07;2.97;;;1.20;;
30046;SDS011;16878;52.542;13.426;2023-03-14T02:54:33;1.45;;;1.02;;
30046;SDS011;16878;52.542;13.426;2023-03-14T02:56:59;2.38;;;1.35;;
30046;SDS011;16878;52.542;13.426;2023-03-14T02:59:24;1.90;;;1.40;;
30046;SDS011;16878;52.542;13.426;2023-03-14T03:01:50;1.65;;;1.30;;
30046;SDS011;16878;52.542;13.426;2023-03-14T03:04:16;2.33;;;1.05;;
30046;SDS011;16878;52.542;13.426;2023-03-14T03:06:41;1.50;;;1.30;;
30046;SDS011;16878;52.542;13.426;2023-03-14T03:09:07;3.47;;;1.10;;
30046;SDS011;16878;52.542;13.426;2023-03-14T03:11:33;3.33;;;1.27;;
30046;SDS011;16878;52.542;13.426;2023-03-14T03:13:59;2.75;;;1.40;;
30046;SDS011;16878;52.542;13.426;2023-03-14T03:16:24;1.10;;;1.00;;
30046;SDS011;16878;52.542;13.426;2023-03-14T03:18:50;1.58;;;1.27;;
30046;SDS011;16878;52.542;13.426;2023-03-14T03:21:16;4.07;;;1.20;;
30046;SDS011;16878;52.542;13.426;2023-03-14T03:23:42;1.60;;;1.20;;
30046;SDS011;16878;52.542;13.426;2023-03-14T03:26:09;2.35;;;1.23;;
30046;SDS011;16878;52.542;13.426;2023-03-14T03:28:35;2.17;;;1.00;;
30046;SDS011;16878;52.542;13.426;2023-03-14T03:31:08;5.38;;;1.30;;
30046;SDS011;16878;52.542;13.426;2023-03-14T03:33:35;3.75;;;1.73;;
30046;SDS011;16878;52.542;13.426;2023-03-14T03:36:01;2.55;;;1.63;;
30046;SDS011;16878;52.542;13.426;2023-03-14T03:38:27;2.50;;;1.30;;
30046;SDS011;16878;52.542;13.426;2023-03-14T03:40:53;1.92;;;1.00;;
30046;SDS011;16878;52.542;13.426;2023-03-14T03:43:19;2.17;;;1.60;;
30046;SDS011;16878;52.542;13.426;2023-03-14T03:45:44;2.70;;;1.20;;
30046;SDS011;16878;52.542;13.426;2023-03-14T03:48:10;2.00;;;1.00;;
30046;SDS011;16878;52.542;13.426;2023-03-14T03:50:36;3.28;;;1.13;;
30046;SDS011;16878;52.542;13.426;2023-03-14T03:53:01;1.80;;;1.20;;
30046;SDS011;16878;52.542;13.426;2023-03-14T03:55:27;2.25;;;1.20;;
30046;SDS011;16878;52.542;13.426;2023-03-14T03:57:53;2.58;;;1.25;;
30046;SDS011;16878;52.542;13.426;2023-03-14T04:00:19;1.30;;;1.20;;
30046;SDS011;16878;52.542;13.426;2023-03-14T04:02:45;2.45;;;0.95;;
30046;SDS011;16878;52.542;13.426;2023-03-14T04:05:10;4.53;;;1.40;;
30046;SDS011;16878;52.542;13.426;2023-03-14T04:07:36;2.78;;;0.77;;
30046;SDS011;16878;52.542;13.426;2023-03-14T04:10:02;4.35;;;1.67;;
30046;SDS011;16878;52.542;13.426;2023-03-14T04:12:28;1.88;;;1.27;;
30046;SDS011;16878;52.542;13.426;2023-03-14T04:14:54;1.77;;;1.30;;
30046;SDS011;16878;52.542;13.426;2023-03-14T04:17:20;2.60;;;1.33;;
30046;SDS011;16878;52.542;13.426;2023-03-14T04:19:45;1.83;;;1.30;;
30046;SDS011;16878;52.542;13.426;2023-03-14T04:22:14;3.35;;;1.58;;
30046;SDS011;16878;52.542;13.426;2023-03-14T04:24:40;3.83;;;1.25;;
30046;SDS011;16878;52.542;13.426;2023-03-14T04:27:05;2.30;;;1.23;;
30046;SDS011;16878;52.542;13.426;2023-03-14T04:29:31;3.00;;;1.38;;
30046;SDS011;16878;52.542;13.426;2023-03-14T04:31:57;2.22;;;1.23;;
30046;SDS011;16878;52.542;13.426;2023-03-14T04:34:22;2.00;;;1.35;;
30046;SDS011;16878;52.542;13.426;2023-03-14T04:36:48;5.95;;;1.50;;
30046;SDS011;16878;52.542;13.426;2023-03-14T04:39:14;4.53;;;1.55;;
30046;SDS011;16878;52.542;13.426;2023-03-14T04:41:39;5.60;;;1.67;;
30046;SDS011;16878;52.542;13.426;2023-03-14T04:44:05;3.83;;;1.40;;
30046;SDS011;16878;52.542;13.426;2023-03-14T04:46:31;4.47;;;1.40;;
30046;SDS011;16878;52.542;13.426;2023-03-14T04:48:56;1.42;;;1.10;;
30046;SDS011;16878;52.542;13.426;2023-03-14T04:51:22;2.50;;;1.15;;
30046;SDS011;16878;52.542;13.426;2023-03-14T04:53:52;3.53;;;1.25;;
30046;SDS011;16878;52.542;13.426;2023-03-14T04:56:18;6.65;;;1.70;;
30046;SDS011;16878;52.542;13.426;2023-03-14T04:58:43;8.65;;;1.90;;
30046;SDS011;16878;52.542;13.426;2023-03-14T05:01:09;9.20;;;1.25;;
30046;SDS011;16878;52.542;13.426;2023-03-14T05:03:35;2.08;;;1.08;;
30046;SDS011;16878;52.542;13.426;2023-03-14T05:06:02;6.28;;;1.40;;
30046;SDS011;16878;52.542;13.426;2023-03-14T05:08:28;2.88;;;1.50;;
30046;SDS011;16878;52.542;13.426;2023-03-14T05:10:54;2.53;;;1.50;;
30046;SDS011;16878;52.542;13.426;2023-03-14T05:13:21;2.70;;;1.45;;
30046;SDS011;16878;52.542;13.426;2023-03-14T05:15:47;4.63;;;1.70;;
30046;SDS011;16878;52.542;13.426;2023-03-14T05:18:12;4.43;;;1.90;;
30046;SDS011;16878;52.542;13.426;2023-03-14T05:20:38;3.13;;;1.65;;
30046;SDS011;16878;52.542;13.426;2023-03-14T05:23:03;6.72;;;1.50;;
30046;SDS011;16878;52.542;13.426;2023-03-14T05:25:29;4.35;;;1.25;;
30046;SDS011;16878;52.542;13.426;2023-03-14T05:27:55;6.35;;;1.90;;
30046;SDS011;16878;52.542;13.426;2023-03-14T05:30:21;4.75;;;1.65;;
30046;SDS011;16878;52.542;13.426;2023-03-14T05:32:47;1.98;;;1.40;;
30046;SDS011;16878;52.542;13.426;2023-03-14T05:35:13;4.35;;;2.10;;
30046;SDS011;16878;52.542;13.426;2023-03-14T05:37:39;2.35;;;1.45;;
30046;SDS011;16878;52.542;13.426;2023-03-14T05:40:05;4.05;;;2.47;;
30046;SDS011;16878;52.542;13.426;2023-03-14T05:42:32;5.05;;;1.90;;
30046;SDS011;16878;52.542;13.426;2023-03-14T05:44:58;4.10;;;1.70;;
30046;SDS011;16878;52.542;13.426;2023-03-14T05:47:23;4.10;;;1.90;;
30046;SDS011;16878;52.542;13.426;2023-03-14T05:49:49;4.05;;;1.63;;
30046;SDS011;16878;52.542;13.426;2023-03-14T05:52:15;2.13;;;1.63;;
30046;SDS011;16878;52.542;13.426;2023-03-14T05:54:40;4.57;;;1.52;;
30046;SDS011;16878;52.542;13.426;2023-03-14T05:57:06;9.25;;;1.90;;
30046;SDS011;16878;52.542;13.426;2023-03-14T05:59:32;6.93;;;1.83;;
30046;SDS011;16878;52.542;13.426;2023-03-14T06:01:58;5.20;;;2.38;;
30046;SDS011;16878;52.542;13.426;2023-03-14T06:04:23;9.73;;;2.00;;
30046;SDS011;16878;52.542;13.426;2023-03-14T06:06:49;5.22;;;2.15;;
30046;SDS011;16878;52.542;13.426;2023-03-14T06:09:15;4.53;;;1.80;;
30046;SDS011;16878;52.542;13.426;2023-03-14T06:11:41;4.80;;;1.95;;
30046;SDS011;16878;52.542;13.426;2023-03-14T06:14:07;5.00;;;1.52;;
30046;SDS011;16878;52.542;13.426;2023-03-14T06:16:32;3.00;;;1.42;;
30046;SDS011;16878;52.542;13.426;2023-03-14T06:18:58;4.35;;;1.60;;
30046;SDS011;16878;52.542;13.426;2023-03-14T06:21:24;3.33;;;1.63;;
30046;SDS011;16878;52.542;13.426;2023-03-14T06:23:50;3.15;;;1.52;;
30046;SDS011;16878;52.542;13.426;2023-03-14T06:26:16;4.22;;;1.77;;
30046;SDS011;16878;52.542;13.426;2023-03-14T06:28:41;8.73;;;2.40;;
30046;SDS011;16878;52.542;13.426;2023-03-14T06:31:07;7.35;;;2.10;;
30046;SDS011;16878;52.542;13.426;2023-03-14T06:33:33;8.57;;;2.25;;
30046;SDS011;16878;52.542;13.426;2023-03-14T06:35:58;10.48;;;2.05;;
30046;SDS011;16878;52.542;13.426;2023-03-14T06:38:24;1.80;;;1.33;;
30046;SDS011;16878;52.542;13.426;2023-03-14T06:40:50;8.13;;;2.13;;
30046;SDS011;16878;52.542;13.426;2023-03-14T06:43:16;6.53;;;2.70;;
30046;SDS011;16878;52.542;13.426;2023-03-14T06:45:41;14.38;;;1.73;;
30046;SDS011;16878;52.542;13.426;2023-03-14T06:48:07;5.68;;;2.38;;
30046;SDS011;16878;52.542;13.426;2023-03-14T06:50:33;6.97;;;1.95;;
30046;SDS011;16878;52.542;13.426;2023-03-14T06:52:59;3.10;;;1.70;;
30046;SDS011;16878;52.542;13.426;2023-03-14T06:55:25;3.28;;;1.50;;
30046;SDS011;16878;52.542;13.426;2023-03-14T06:57:51;4.25;;;1.70;;
30046;SDS011;16878;52.542;13.426;2023-03-14T07:00:17;9.48;;;2.17;;
30046;SDS011;16878;52.542;13.426;2023-03-14T07:02:42;6.90;;;1.95;;
30046;SDS011;16878;52.542;13.426;2023-03-14T07:05:08;5.20;;;1.80;;
30046;SDS011;16878;52.542;13.426;2023-03-14T07:10:03;9.43;;;2.53;;
30046;SDS011;16878;52.542;13.426;2023-03-14T07:12:29;5.05;;;2.25;;
30046;SDS011;16878;52.542;13.426;2023-03-14T07:14:55;5.35;;;2.20;;
30046;SDS011;16878;52.542;13.426;2023-03-14T07:17:20;7.75;;;1.95;;
30046;SDS011;16878;52.542;13.426;2023-03-14T07:19:46;9.10;;;1.90;;
30046;SDS011;16878;52.542;13.426;2023-03-14T07:22:12;3.83;;;1.80;;
30046;SDS011;16878;52.542;13.426;2023-03-14T07:24:37;8.00;;;1.77;;
30046;SDS011;16878;52.542;13.426;2023-03-14T07:27:03;11.57;;;2.40;;
30046;SDS011;16878;52.542;13.426;2023-03-14T07:29:29;8.50;;;2.40;;
30046;SDS011;16878;52.542;13.426;2023-03-14T07:31:54;16.48;;;2.25;;
30046;SDS011;16878;52.542;13.426;2023-03-14T07:34:20;11.38;;;1.98;;
30046;SDS011;16878;52.542;13.426;2023-03-14T07:36:46;4.45;;;1.92;;
30046;SDS011;16878;52.542;13.426;2023-03-14T07:39:12;9.77;;;2.80;;
30046;SDS011;16878;52.542;13.426;2023-03-14T07:41:37;12.45;;;2.65;;
30046;SDS011;16878;52.542;13.426;2023-03-14T07:44:03;11.82;;;1.90;;
30046;SDS011;16878;52.542;13.426;2023-03-14T07:46:32;10.05;;;2.63;;
30046;SDS011;16878;52.542;13.426;2023-03-14T07:48:57;10.57;;;2.55;;
30046;SDS011;16878;52.542;13.426;2023-03-14T07:51:23;5.07;;;1.63;;
30046;SDS011;16878;52.542;13.426;2023-03-14T07:53:49;8.82;;;2.22;;
30046;SDS011;16878;52.542;13.426;2023-03-14T07:56:14;6.45;;;2.63;;
30046;SDS011;16878;52.542;13.426;2023-03-14T07:58:40;9.10;;;1.85;;
30046;SDS011;16878;52.542;13.426;2023-03-14T08:01:06;7.60;;;2.67;;
30046;SDS011;16878;52.542;13.426;2023-03-14T08:03:32;11.05;;;2.60;;
30046;SDS011;16878;52.542;13.426;2023-03-14T08:05:58;5.75;;;1.73;;
30046;SDS011;16878;52.542;13.426;2023-03-14T08:08:24;12.05;;;2.42;;
30046;SDS011;16878;52.542;13.426;2023-03-14T08:10:49;9.32;;;2.53;;
30046;SDS011;16878;52.542;13.426;2023-03-14T08:13:15;7.25;;;2.00;;
30046;SDS011;16878;52.542;13.426;2023-03-14T08:15:41;20.88;;;2.63;;
30046;SDS011;16878;52.542;13.426;2023-03-14T08:18:07;15.65;;;2.38;;
30046;SDS011;16878;52.542;13.426;2023-03-14T08:20:33;5.47;;;1.98;;
30046;SDS011;16878;52.542;13.426;2023-03-14T08:23:00;10.45;;;2.35;;
30046;SDS011;16878;52.542;13.426;2023-03-14T08:25:27;7.95;;;2.30;;
30046;SDS011;16878;52.542;13.426;2023-03-14T08:27:53;10.98;;;3.72;;
30046;SDS011;16878;52.542;13.426;2023-03-14T08:30:19;6.18;;;2.10;;
30046;SDS011;16878;52.542;13.426;2023-03-14T08:32:46;6.05;;;2.25;;
30046;SDS011;16878;52.542;13.426;2023-03-14T08:35:12;12.18;;;2.60;;
30046;SDS011;16878;52.542;13.426;2023-03-14T08:37:38;9.15;;;2.53;;
30046;SDS011;16878;52.542;13.426;2023-03-14T08:40:05;5.50;;;2.58;;
30046;SDS011;16878;52.542;13.426;2023-03-14T08:42:38;6.47;;;1.95;;
30046;SDS011;16878;52.542;13.426;2023-03-14T08:45:05;12.50;;;2.28;;
30046;SDS011;16878;52.542;13.426;2023-03-14T08:47:32;10.00;;;2.72;;
30046;SDS011;16878;52.542;13.426;2023-03-14T08:49:58;9.57;;;2.72;;
30046;SDS011;16878;52.542;13.426;2023-03-14T08:52:23;7.20;;;2.38;;
30046;SDS011;16878;52.542;13.426;2023-03-14T08:54:49;7.43;;;2.40;;
30046;SDS011;16878;52.542;13.426;2023-03-14T08:57:15;9.88;;;2.30;;
30046;SDS011;16878;52.542;13.426;2023-03-14T08:59:41;5.57;;;1.77;;
30046;SDS011;16878;52.542;13.426;2023-03-14T09:02:08;8.32;;;2.70;;
30046;SDS011;16878;52.542;13.426;2023-03-14T09:07:01;11.93;;;1.98;;
30046;SDS011;16878;52.542;13.426;2023-03-14T09:09:28;5.80;;;2.13;;
30046;SDS011;16878;52.542;13.426;2023-03-14T09:11:55;10.93;;;2.88;;
30046;SDS011;16878;52.542;13.426;2023-03-14T09:14:21;7.47;;;2.67;;
30046;SDS011;16878;52.542;13.426;2023-03-14T09:16:47;4.68;;;2.15;;
30046;SDS011;16878;52.542;13.426;2023-03-14T09:19:13;10.52;;;2.22;;
30046;SDS011;16878;52.542;13.426;2023-03-14T09:21:39;15.68;;;3.85;;
30046;SDS011;16878;52.542;13.426;2023-03-14T09:24:05;7.57;;;2.50;;
30046;SDS011;16878;52.542;13.426;2023-03-14T09:26:31;6.82;;;2.42;;
30046;SDS011;16878;52.542;13.426;2023-03-14T09:28:58;7.25;;;1.88;;
30046;SDS011;16878;52.542;13.426;2023-03-14T09:31:23;10.32;;;2.20;;
30046;SDS011;16878;52.542;13.426;2023-03-14T09:33:49;5.32;;;2.25;;
30046;SDS011;16878;52.542;13.426;2023-03-14T09:36:15;11.32;;;2.55;;
30046;SDS011;16878;52.542;13.426;2023-03-14T09:38:41;14.20;;;3.28;;
30046;SDS011;16878;52.542;13.426;2023-03-14T09:41:29;7.22;;;2.53;;
30046;SDS011;16878;52.542;13.426;2023-03-14T09:46:33;9.90;;;4.85;;
30046;SDS011;16878;52.542;13.426;2023-03-14T09:49:01;9.13;;;2.80;;
30046;SDS011;16878;52.542;13.426;2023-03-14T09:51:28;9.35;;;2.10;;
30046;SDS011;16878;52.542;13.426;2023-03-14T09:53:54;6.82;;;2.00;;
30046;SDS011;16878;52.542;13.426;2023-03-14T09:56:21;8.13;;;2.90;;
30046;SDS011;16878;52.542;13.426;2023-03-14T09:58:54;13.10;;;2.97;;
30046;SDS011;16878;52.542;13.426;2023-03-14T10:01:29;9.32;;;2.38;;
30046;SDS011;16878;52.542;13.426;2023-03-14T10:03:58;9.55;;;3.00;;
30046;SDS011;16878;52.542;13.426;2023-03-14T10:06:29;14.80;;;5.47;;
30046;SDS011;16878;52.542;13.426;2023-03-14T10:08:55;9.30;;;4.43;;
30046;SDS011;16878;52.542;13.426;2023-03-14T10:11:22;6.15;;;2.50;;
30046;SDS011;16878;52.542;13.426;2023-03-14T10:13:49;11.00;;;2.30;;
30046;SDS011;16878;52.542;13.426;2023-03-14T10:19:09;6.13;;;1.75;;
30046;SDS011;16878;52.542;13.426;2023-03-14T10:21:37;8.38;;;1.98;;
30046;SDS011;16878;52.542;13.426;2023-03-14T10:24:16;3.85;;;2.20;;
30046;SDS011;16878;52.542;13.426;2023-03-14T10:27:04;8.70;;;2.55;;
30046;SDS011;16878;52.542;13.426;2023-03-14T10:29:34;14.75;;;4.88;;
30046;SDS011;16878;52.542;13.426;2023-03-14T10:32:18;8.18;;;2.90;;
30046;SDS011;16878;52.542;13.426;2023-03-14T10:34:45;12.13;;;2.45;;
30046;SDS011;16878;52.542;13.426;2023-03-14T10:37:56;6.95;;;2.35;;
30046;SDS011;16878;52.542;13.426;2023-03-14T10:40:26;8.82;;;2.97;;
30046;SDS011;16878;52.542;13.426;2023-03-14T10:48:06;5.43;;;2.05;;
30046;SDS011;16878;52.542;13.426;2023-03-14T10:51:03;12.85;;;4.00;;
30046;SDS011;16878;52.542;13.426;2023-03-14T10:56:34;18.15;;;5.78;;
30046;SDS011;16878;52.542;13.426;2023-03-14T10:59:01;10.40;;;3.13;;
30046;SDS011;16878;52.542;13.426;2023-03-14T11:04:12;6.80;;;2.40;;
30046;SDS011;16878;52.542;13.426;2023-03-14T11:14:58;6.45;;;1.50;;
30046;SDS011;16878;52.542;13.426;2023-03-14T11:17:34;9.60;;;1.73;;
30046;SDS011;16878;52.542;13.426;2023-03-14T11:23:18;6.97;;;2.47;;
30046;SDS011;16878;52.542;13.426;2023-03-14T11:31:28;4.65;;;1.52;;
30046;SDS011;16878;52.542;13.426;2023-03-14T11:39:17;6.20;;;2.22;;
30046;SDS011;16878;52.542;13.426;2023-03-14T11:41:49;10.00;;;1.48;;
30046;SDS011;16878;52.542;13.426;2023-03-14T11:44:22;5.38;;;1.67;;
30046;SDS011;16878;52.542;13.426;2023-03-14T11:52:52;3.83;;;1.35;;
30046;SDS011;16878;52.542;13.426;2023-03-14T11:55:42;7.03;;;3.50;;
30046;SDS011;16878;52.542;13.426;2023-03-14T12:00:38;7.72;;;3.70;;
30046;SDS011;16878;52.542;13.426;2023-03-14T12:03:17;6.68;;;2.20;;
30046;SDS011;16878;52.542;13.426;2023-03-14T12:10:56;6.15;;;1.35;;
30046;SDS011;16878;52.542;13.426;2023-03-14T12:13:29;4.10;;;1.35;;
30046;SDS011;16878;52.542;13.426;2023-03-14T12:15:59;5.13;;;1.38;;
30046;SDS011;16878;52.542;13.426;2023-03-14T12:18:33;5.72;;;1.40;;
30046;SDS011;16878;52.542;13.426;2023-03-14T12:21:04;9.15;;;1.85;;
30046;SDS011;16878;52.542;13.426;2023-03-14T12:24:14;6.72;;;1.90;;
30046;SDS011;16878;52.542;13.426;2023-03-14T12:26:26;5.50;;;2.05;;
30046;SDS011;16878;52.542;13.426;2023-03-14T12:32:05;3.35;;;1.48;;
30046;SDS011;16878;52.542;13.426;2023-03-14T12:34:38;4.97;;;1.75;;
30046;SDS011;16878;52.542;13.426;2023-03-14T12:39:59;8.35;;;1.75;;
30046;SDS011;16878;52.542;13.426;2023-03-14T12:45:26;11.98;;;1.52;;
30046;SDS011;16878;52.542;13.426;2023-03-14T12:50:56;14.73;;;3.28;;
30046;SDS011;16878;52.542;13.426;2023-03-14T12:56:27;4.40;;;1.88;;
30046;SDS011;16878;52.542;13.426;2023-03-14T13:01:54;8.07;;;1.80;;
30046;SDS011;16878;52.542;13.426;2023-03-14T13:04:28;5.38;;;2.13;;
30046;SDS011;16878;52.542;13.426;2023-03-14T13:06:58;4.25;;;1.60;;
30046;SDS011;16878;52.542;13.426;2023-03-14T13:12:07;3.05;;;1.77;;
30046;SDS011;16878;52.542;13.426;2023-03-14T13:14:36;8.32;;;2.03;;
30046;SDS011;16878;52.542;13.426;2023-03-14T13:17:10;4.55;;;2.10;;
30046;SDS011;16878;52.542;13.426;2023-03-14T13:19:37;7.65;;;1.67;;
30046;SDS011;16878;52.542;13.426;2023-03-14T13:22:04;4.47;;;1.83;;
30046;SDS011;16878;52.542;13.426;2023-03-14T13:24:38;8.68;;;1.63;;
30046;SDS011;16878;52.542;13.426;2023-03-14T13:27:03;2.50;;;1.50;;
30046;SDS011;16878;52.542;13.426;2023-03-14T13:29:30;7.13;;;2.47;;
30046;SDS011;16878;52.542;13.426;2023-03-14T13:31:58;3.00;;;1.42;;
30046;SDS011;16878;52.542;13.426;2023-03-14T13:34:26;3.58;;;1.83;;
30046;SDS011;16878;52.542;13.426;2023-03-14T13:36:56;2.38;;;1.20;;
30046;SDS011;16878;52.542;13.426;2023-03-14T13:39:24;2.65;;;1.70;;
30046;SDS011;16878;52.542;13.426;2023-03-14T13:41:57;3.10;;;1.80;;
30046;SDS011;16878;52.542;13.426;2023-03-14T13:44:29;5.60;;;1.88;;
30046;SDS011;16878;52.542;13.426;2023-03-14T13:47:00;8.07;;;1.90;;
30046;SDS011;16878;52.542;13.426;2023-03-14T13:49:27;7.25;;;1.70;;
30046;SDS011;16878;52.542;13.426;2023-03-14T13:51:56;2.40;;;1.67;;
30046;SDS011;16878;52.542;13.426;2023-03-14T13:54:22;4.38;;;1.95;;
30046;SDS011;16878;52.542;13.426;2023-03-14T13:56:48;6.43;;;1.98;;
30046;SDS011;16878;52.542;13.426;2023-03-14T13:59:24;5.25;;;1.90;;
30046;SDS011;16878;52.542;13.426;2023-03-14T14:01:52;4.25;;;1.70;;
30046;SDS011;16878;52.542;13.426;2023-03-14T14:04:19;4.07;;;2.20;;
30046;SDS011;16878;52.542;13.426;2023-03-14T14:06:54;3.03;;;1.42;;
30046;SDS011;16878;52.542;13.426;2023-03-14T14:09:27;3.30;;;1.50;;
30046;SDS011;16878;52.542;13.426;2023-03-14T14:12:04;2.05;;;1.05;;
30046;SDS011;16878;52.542;13.426;2023-03-14T14:14:35;1.15;;;0.82;;
30046;SDS011;16878;52.542;13.426;2023-03-14T14:17:11;2.88;;;1.38;;
30046;SDS011;16878;52.542;13.426;2023-03-14T14:19:40;3.92;;;1.25;;
30046;SDS011;16878;52.542;13.426;2023-03-14T14:22:10;5.32;;;1.25;;
30046;SDS011;16878;52.542;13.426;2023-03-14T14:24:36;4.75;;;1.00;;
30046;SDS011;16878;52.542;13.426;2023-03-14T14:27:19;3.63;;;1.20;;
30046;SDS011;16878;52.542;13.426;2023-03-14T14:30:01;4.65;;;1.00;;
30046;SDS011;16878;52.542;13.426;2023-03-14T14:32:36;5.55;;;1.60;;
30046;SDS011;16878;52.542;13.426;2023-03-14T14:35:03;3.75;;;0.93;;
30046;SDS011;16878;52.542;13.426;2023-03-14T14:37:31;4.30;;;1.23;;
30046;SDS011;16878;52.542;13.426;2023-03-14T14:40:00;5.10;;;1.20;;
30046;SDS011;16878;52.542;13.426;2023-03-14T14:42:33;4.63;;;1.10;;
30046;SDS011;16878;52.542;13.426;2023-03-14T14:44:59;4.70;;;0.80;;
30046;SDS011;16878;52.542;13.426;2023-03-14T14:47:28;6.15;;;1.30;;
30046;SDS011;16878;52.542;13.426;2023-03-14T14:49:55;4.35;;;1.85;;
30046;SDS011;16878;52.542;13.426;2023-03-14T14:52:34;2.85;;;1.30;;
30046;SDS011;16878;52.542;13.426;2023-03-14T14:55:17;5.00;;;1.10;;
30046;SDS011;16878;52.542;13.426;2023-03-14T14:57:52;2.28;;;1.20;;
30046;SDS011;16878;52.542;13.426;2023-03-14T15:00:20;2.88;;;1.08;;
30046;SDS011;16878;52.542;13.426;2023-03-14T15:02:54;5.60;;;0.95;;
30046;SDS011;16878;52.542;13.426;2023-03-14T15:05:25;5.25;;;0.88;;
30046;SDS011;16878;52.542;13.426;2023-03-14T15:07:52;1.67;;;1.15;;
30046;SDS011;16878;52.542;13.426;2023-03-14T15:10:19;3.42;;;0.95;;
30046;SDS011;16878;52.542;13.426;2023-03-14T15:15:13;2.33;;;1.35;;
30046;SDS011;16878;52.542;13.426;2023-03-14T15:17:40;3.05;;;1.38;;
30046;SDS011;16878;52.542;13.426;2023-03-14T15:20:09;7.35;;;2.78;;
30046;SDS011;16878;52.542;13.426;2023-03-14T15:22:39;3.25;;;0.65;;
30046;SDS011;16878;52.542;13.426;2023-03-14T15:25:06;5.55;;;2.10;;
30046;SDS011;16878;52.542;13.426;2023-03-14T15:27:33;2.67;;;0.77;;
30046;SDS011;16878;52.542;13.426;2023-03-14T15:29:59;1.75;;;0.77;;
30046;SDS011;16878;52.542;13.426;2023-03-14T15:32:26;2.22;;;0.45;;
30046;SDS011;16878;52.542;13.426;2023-03-14T15:34:52;0.50;;;0.50;;
30046;SDS011;16878;52.542;13.426;2023-03-14T15:39:47;3.08;;;0.70;;
30046;SDS011;16878;52.542;13.426;2023-03-14T15:42:14;2.92;;;0.45;;
30046;SDS011;16878;52.542;13.426;2023-03-14T15:44:40;1.75;;;0.40;;
30046;SDS011;16878;52.542;13.426;2023-03-14T15:47:06;1.25;;;0.45;;
30046;SDS011;16878;52.542;13.426;2023-03-14T15:49:32;0.60;;;0.47;;
30046;SDS011;16878;52.542;13.426;2023-03-14T15:51:58;0.60;;;0.40;;
30046;SDS011;16878;52.542;13.426;2023-03-14T15:54:24;1.98;;;0.70;;
30046;SDS011;16878;52.542;13.426;2023-03-14T15:56:56;3.83;;;0.75;;
30046;SDS011;16878;52.542;13.426;2023-03-14T15:59:23;3.22;;;0.77;;
30046;SDS011;16878;52.542;13.426;2023-03-14T16:01:50;4.57;;;1.00;;
30046;SDS011;16878;52.542;13.426;2023-03-14T16:04:16;5.60;;;1.10;;
30046;SDS011;16878;52.542;13.426;2023-03-14T16:06:42;3.42;;;1.13;;
30046;SDS011;16878;52.542;13.426;2023-03-14T16:09:09;7.25;;;1.70;;
30046;SDS011;16878;52.542;13.426;2023-03-14T16:11:39;2.92;;;0.98;;